createdAt,value
2023-12-29T00:01:40.291Z,99661.64
2023-12-29T00:04:12.495Z,99665.70
2023-12-29T00:06:53.487Z,99665.37
2023-12-29T00:09:29.705Z,99655.89
2023-12-29T00:12:01.689Z,99644.31
2023-12-29T00:14:33.737Z,99642.87
2023-12-29T00:17:06.747Z,99639.14
2023-12-29T00:19:38.943Z,99632.05
2023-12-29T00:22:11.042Z,99640.48
2023-12-29T00:24:43.081Z,99646.70
2023-12-29T00:27:15.899Z,99650.86
2023-12-29T00:29:47.831Z,99652.48
2023-12-29T00:32:20.021Z,99650.09
2023-12-29T00:34:52.057Z,99644.03
2023-12-29T00:37:24.110Z,99644.50
2023-12-29T00:39:56.078Z,99645.86
2023-12-29T00:42:28.142Z,99645.29
2023-12-29T00:45:00.097Z,99639.98
2023-12-29T00:47:32.233Z,99632.58
2023-12-29T00:50:04.668Z,99630.20
2023-12-29T00:52:37.657Z,99628.00
2023-12-29T00:55:10.766Z,99629.35
2023-12-29T00:57:42.873Z,99622.58
2023-12-29T01:00:17.499Z,99619.70
2023-12-29T01:02:49.517Z,99618.20
2023-12-29T01:05:22.076Z,99625.02
2023-12-29T01:07:54.209Z,99628.80
2023-12-29T01:10:26.287Z,99644.23
2023-12-29T01:12:58.260Z,99641.20
2023-12-29T01:15:30.933Z,99636.29
2023-12-29T01:18:03.255Z,99628.40
2023-12-29T01:20:35.574Z,99623.91
2023-12-29T01:23:07.759Z,99625.27
2023-12-29T01:25:39.776Z,99620.02
2023-12-29T01:28:11.966Z,99615.05
2023-12-29T01:30:44.188Z,99610.50
2023-12-29T01:33:16.338Z,99610.42
2023-12-29T01:35:48.513Z,99608.44
2023-12-29T01:38:20.505Z,99610.83
2023-12-29T01:40:52.505Z,99606.27
2023-12-29T01:43:24.654Z,99597.80
2023-12-29T01:45:58.308Z,99592.88
2023-12-29T01:48:31.073Z,99600.20
2023-12-29T01:51:04.151Z,99604.64
2023-12-29T01:53:43.095Z,99606.94
2023-12-29T01:56:20.897Z,99600.04
2023-12-29T01:58:53.635Z,99602.95
2023-12-29T02:01:25.928Z,99604.71
2023-12-29T02:03:58.335Z,99599.45
2023-12-29T02:06:31.231Z,99604.09
2023-12-29T02:09:06.107Z,99609.42
2023-12-29T02:11:38.126Z,99613.16
2023-12-29T02:14:10.475Z,99614.90
2023-12-29T02:16:55.157Z,99609.46
2023-12-29T02:19:42.825Z,99605.73
2023-12-29T02:22:15.572Z,99599.98
2023-12-29T02:24:50.185Z,99595.55
2023-12-29T02:27:34.123Z,99596.95
2023-12-29T02:30:13.041Z,99591.80
2023-12-29T02:32:48.908Z,99582.08
2023-12-29T02:35:38.312Z,99573.25
2023-12-29T02:38:10.778Z,99569.98
2023-12-29T02:40:42.894Z,99568.00
2023-12-29T02:43:14.944Z,99568.04
2023-12-29T02:45:47.850Z,99563.35
2023-12-29T02:48:20.041Z,99555.98
2023-12-29T02:50:52.330Z,99551.59
2023-12-29T02:53:24.323Z,99548.14
2023-12-29T02:55:57.585Z,99552.60
2023-12-29T02:58:29.642Z,99542.89
2023-12-29T03:01:01.728Z,99542.33
2023-12-29T03:03:34.173Z,99544.86
2023-12-29T03:06:06.638Z,99547.91
2023-12-29T03:08:38.618Z,99541.10
2023-12-29T03:11:11.922Z,99536.64
2023-12-29T03:13:43.884Z,99542.33
2023-12-29T03:16:16.574Z,99535.24
2023-12-29T03:18:49.101Z,99533.27
2023-12-29T03:21:22.122Z,99536.29
2023-12-29T03:23:54.129Z,99515.71
2023-12-29T03:26:26.151Z,99523.30
2023-12-29T03:28:58.098Z,99526.67
2023-12-29T03:31:30.642Z,99523.96
2023-12-29T03:34:02.841Z,99523.16
2023-12-29T03:36:34.930Z,99516.95
2023-12-29T03:39:07.222Z,99511.44
2023-12-29T03:41:40.492Z,99517.02
2023-12-29T03:44:12.537Z,99510.60
2023-12-29T03:46:45.680Z,99506.27
2023-12-29T03:49:17.810Z,99510.71
2023-12-29T03:51:50.069Z,99513.73
2023-12-29T03:54:22.900Z,99511.16
2023-12-29T03:56:54.885Z,99511.34
2023-12-29T03:59:26.876Z,99509.00
2023-12-29T04:01:58.978Z,99498.75
2023-12-29T04:04:31.240Z,99492.59
2023-12-29T04:07:03.503Z,99498.84
2023-12-29T04:09:35.719Z,99495.69
2023-12-29T04:12:08.504Z,99499.63
2023-12-29T04:14:40.598Z,99507.23
2023-12-29T04:17:15.343Z,99503.45
2023-12-29T04:19:47.524Z,99496.59
2023-12-29T04:22:19.566Z,99495.95
2023-12-29T04:24:51.612Z,99492.02
2023-12-29T04:27:23.685Z,99487.08
2023-12-29T04:29:55.638Z,99478.40
2023-12-29T04:32:29.230Z,99481.55
2023-12-29T04:35:01.354Z,99485.89
2023-12-29T04:37:33.429Z,99489.52
2023-12-29T04:40:06.145Z,99493.02
2023-12-29T04:42:38.192Z,99498.21
2023-12-29T04:45:11.711Z,99500.24
2023-12-29T04:47:43.707Z,99502.66
2023-12-29T04:50:15.747Z,99503.50
2023-12-29T04:52:47.771Z,99498.00
2023-12-29T04:55:19.907Z,99493.36
2023-12-29T04:57:51.894Z,99496.58
2023-12-29T05:00:24.223Z,99500.48
2023-12-29T05:02:56.214Z,99502.21
2023-12-29T05:05:28.280Z,99504.39
2023-12-29T05:08:00.538Z,99501.11
2023-12-29T05:10:35.906Z,99497.42
2023-12-29T05:13:08.091Z,99496.27
2023-12-29T05:15:40.281Z,99496.94
2023-12-29T05:18:12.334Z,99499.20
2023-12-29T05:20:45.132Z,99501.54
2023-12-29T05:23:17.474Z,99509.80
2023-12-29T05:25:49.497Z,99499.19
2023-12-29T05:28:21.600Z,99493.87
2023-12-29T05:30:53.826Z,99492.63
2023-12-29T05:33:26.032Z,99495.02
2023-12-29T05:35:58.240Z,99477.70
2023-12-29T05:38:30.309Z,99465.83
2023-12-29T05:41:03.876Z,99466.02
2023-12-29T05:43:36.778Z,99468.44
2023-12-29T05:46:14.009Z,99481.11
2023-12-29T05:48:46.262Z,99482.43
2023-12-29T05:51:18.399Z,99477.11
2023-12-29T05:53:50.504Z,99466.21
2023-12-29T05:56:24.333Z,99468.19
2023-12-29T05:58:57.912Z,99461.21
2023-12-29T06:01:30.137Z,99460.44
2023-12-29T06:04:02.465Z,99463.41
2023-12-29T06:06:34.732Z,99463.92
2023-12-29T06:09:06.940Z,99465.07
2023-12-29T06:11:39.045Z,99461.65
2023-12-29T06:14:11.457Z,99452.02
2023-12-29T06:16:43.693Z,99444.56
2023-12-29T06:19:15.880Z,99443.18
2023-12-29T06:21:48.607Z,99450.54
2023-12-29T06:24:20.772Z,99449.71
2023-12-29T06:26:52.891Z,99445.42
2023-12-29T06:29:24.988Z,99449.00
2023-12-29T06:31:57.086Z,99456.03
2023-12-29T06:34:29.315Z,99459.91
2023-12-29T06:37:01.973Z,99461.52
2023-12-29T06:39:34.295Z,99463.87
2023-12-29T06:42:06.939Z,99463.86
2023-12-29T06:44:39.506Z,99460.17
2023-12-29T06:47:11.670Z,99455.10
2023-12-29T06:49:44.077Z,99461.76
2023-12-29T06:52:16.459Z,99462.16
2023-12-29T06:54:48.578Z,99466.19
2023-12-29T06:57:20.711Z,99466.09
2023-12-29T06:59:52.820Z,99468.85
2023-12-29T07:02:25.889Z,99463.55
2023-12-29T07:04:58.590Z,99461.89
2023-12-29T07:07:31.424Z,99455.43
2023-12-29T07:10:05.131Z,99459.88
2023-12-29T07:12:37.349Z,99461.69
2023-12-29T07:15:11.162Z,99455.29
2023-12-29T07:17:43.327Z,99456.79
2023-12-29T07:20:15.835Z,99458.08
2023-12-29T07:22:47.917Z,99466.13
2023-12-29T07:25:20.234Z,99468.39
2023-12-29T07:27:53.943Z,99467.32
2023-12-29T07:30:27.337Z,99474.97
2023-12-29T07:32:59.526Z,99473.36
2023-12-29T07:35:31.875Z,99476.88
2023-12-29T07:38:04.091Z,99478.86
2023-12-29T07:40:36.194Z,99479.52
2023-12-29T07:43:08.447Z,99476.53
2023-12-29T07:45:41.424Z,99472.58
2023-12-29T07:48:13.777Z,99467.27
2023-12-29T07:50:46.575Z,99472.08
2023-12-29T07:53:18.745Z,99469.96
2023-12-29T07:55:51.631Z,99472.48
2023-12-29T07:58:23.693Z,99464.89
2023-12-29T08:00:55.756Z,99471.63
2023-12-29T08:03:27.994Z,99474.31
2023-12-29T08:05:59.981Z,99475.12
2023-12-29T08:08:32.057Z,99476.13
2023-12-29T08:11:04.222Z,99476.85
2023-12-29T08:13:36.649Z,99477.11
2023-12-29T08:16:10.435Z,99474.88
2023-12-29T08:18:42.529Z,99472.00
2023-12-29T08:21:20.909Z,99463.53
2023-12-29T08:23:53.096Z,99463.46
2023-12-29T08:26:25.086Z,99468.56
2023-12-29T08:28:57.114Z,99467.81
2023-12-29T08:31:31.019Z,99468.09
2023-12-29T08:34:03.419Z,99470.89
2023-12-29T08:36:37.025Z,99473.89
2023-12-29T08:39:10.469Z,99474.48
2023-12-29T08:41:42.600Z,99479.85
2023-12-29T08:44:15.895Z,99481.84
2023-12-29T08:46:48.360Z,99482.72
2023-12-29T08:49:21.260Z,99484.95
2023-12-29T08:51:53.476Z,99483.95
2023-12-29T08:54:25.434Z,99490.23
2023-12-29T08:56:57.415Z,99487.91
2023-12-29T08:59:29.399Z,99489.32
2023-12-29T09:02:01.553Z,99487.45
2023-12-29T09:04:33.530Z,99496.94
2023-12-29T09:07:07.421Z,99494.03
2023-12-29T09:09:40.800Z,99485.80
2023-12-29T09:12:12.888Z,99478.11
2023-12-29T09:14:44.901Z,99476.99
2023-12-29T09:17:16.889Z,99474.13
2023-12-29T09:19:57.016Z,99473.67
2023-12-29T09:22:32.578Z,99476.27
2023-12-29T09:25:04.897Z,99476.31
2023-12-29T09:27:37.185Z,99477.04
2023-12-29T09:30:11.679Z,99475.71
2023-12-29T09:32:43.752Z,99467.15
2023-12-29T09:35:15.793Z,99466.59
2023-12-29T09:37:47.726Z,99464.80
2023-12-29T09:40:20.068Z,99465.23
2023-12-29T09:42:53.012Z,99456.31
2023-12-29T09:45:27.647Z,99454.95
2023-12-29T09:48:02.265Z,99456.86
2023-12-29T09:50:36.338Z,99458.93
2023-12-29T09:53:09.063Z,99462.15
2023-12-29T09:55:42.794Z,99459.70
2023-12-29T09:58:17.164Z,99460.55
2023-12-29T10:00:51.699Z,99458.81
2023-12-29T10:03:23.837Z,99459.13
2023-12-29T10:05:59.309Z,99450.63
2023-12-29T10:08:33.792Z,99453.06
2023-12-29T10:11:07.561Z,99457.38
2023-12-29T10:13:40.567Z,99453.25
2023-12-29T10:16:30.417Z,99445.23
2023-12-29T10:19:12.681Z,99441.66
2023-12-29T10:21:46.581Z,99437.03
2023-12-29T10:24:23.385Z,99431.35
2023-12-29T10:26:55.606Z,99423.80
2023-12-29T10:29:31.182Z,99422.89
2023-12-29T10:32:03.205Z,99431.45
2023-12-29T10:34:35.580Z,99432.45
2023-12-29T10:37:14.585Z,99439.71
2023-12-29T10:39:58.812Z,99436.48
2023-12-29T10:42:30.970Z,99434.45
2023-12-29T10:45:13.580Z,99431.44
2023-12-29T10:47:48.998Z,99432.39
2023-12-29T10:50:21.130Z,99437.44
2023-12-29T10:52:53.094Z,99429.89
2023-12-29T10:55:27.721Z,99431.81
2023-12-29T10:58:03.879Z,99426.83
2023-12-29T11:00:35.084Z,99431.36
2023-12-29T11:03:08.474Z,99429.48
2023-12-29T11:05:41.079Z,99426.75
2023-12-29T11:08:19.230Z,99426.45
2023-12-29T11:10:52.626Z,99421.30
2023-12-29T11:13:26.397Z,99418.30
2023-12-29T11:15:59.493Z,99417.46
2023-12-29T11:18:33.871Z,99421.44
2023-12-29T11:21:06.996Z,99425.27
2023-12-29T11:23:39.009Z,99429.58
2023-12-29T11:26:11.536Z,99419.52
2023-12-29T11:28:45.396Z,99403.23
2023-12-29T11:31:18.037Z,99388.83
2023-12-29T11:33:56.138Z,99383.84
2023-12-29T11:36:34.168Z,99381.13
2023-12-29T11:39:19.483Z,99377.66
2023-12-29T11:42:04.568Z,99371.47
2023-12-29T11:44:37.415Z,99370.42
2023-12-29T11:47:29.446Z,99370.09
2023-12-29T11:50:05.598Z,99369.29
2023-12-29T11:52:40.147Z,99371.86
2023-12-29T11:55:13.837Z,99379.60
2023-12-29T11:57:46.153Z,99381.02
2023-12-29T12:00:19.845Z,99374.18
2023-12-29T12:02:52.752Z,99371.46
2023-12-29T12:05:51.146Z,99374.71
2023-12-29T12:08:37.332Z,99367.34
2023-12-29T12:11:45.679Z,99374.25
2023-12-29T12:14:51.307Z,99376.35
2023-12-29T12:17:34.745Z,99384.65
2023-12-29T12:20:11.263Z,99386.61
2023-12-29T12:22:44.088Z,99382.73
2023-12-29T12:25:16.456Z,99375.02
2023-12-29T12:27:49.391Z,99370.59
2023-12-29T12:30:24.213Z,99368.86
2023-12-29T12:33:04.452Z,99366.27
2023-12-29T12:35:37.234Z,99359.70
2023-12-29T12:38:13.428Z,99354.23
2023-12-29T12:40:45.547Z,99356.60
2023-12-29T12:43:19.471Z,99359.81
2023-12-29T12:46:01.782Z,99363.74
2023-12-29T12:48:38.521Z,99367.52
2023-12-29T12:51:10.821Z,99365.08
2023-12-29T12:53:45.812Z,99372.27
2023-12-29T12:56:18.789Z,99369.98
2023-12-29T12:58:50.960Z,99372.04
2023-12-29T13:01:23.888Z,99374.73
2023-12-29T13:03:57.494Z,99373.35
2023-12-29T13:06:29.584Z,99371.77
2023-12-29T13:09:03.320Z,99369.84
2023-12-29T13:11:35.626Z,99370.66
2023-12-29T13:14:08.518Z,99372.04
2023-12-29T13:16:41.528Z,99370.48
2023-12-29T13:19:25.846Z,99365.77
2023-12-29T13:21:59.046Z,99363.27
2023-12-29T13:24:31.341Z,99359.78
2023-12-29T13:27:08.722Z,99360.42
2023-12-29T13:29:43.298Z,99355.03
2023-12-29T13:32:19.507Z,99360.66
2023-12-29T13:34:58.888Z,99375.39
2023-12-29T13:37:38.873Z,99382.55
2023-12-29T13:40:17.383Z,99395.37
2023-12-29T13:42:53.221Z,99394.27
2023-12-29T13:45:26.398Z,99398.71
2023-12-29T13:48:00.636Z,99400.06
2023-12-29T13:50:33.179Z,99399.49
2023-12-29T13:53:05.350Z,99396.69
2023-12-29T13:55:37.327Z,99393.02
2023-12-29T13:58:14.929Z,99390.05
2023-12-29T14:00:48.661Z,99398.90
2023-12-29T14:03:35.364Z,99398.01
2023-12-29T14:06:14.900Z,99405.70
2023-12-29T14:08:49.079Z,99410.81
2023-12-29T14:11:21.559Z,99413.14
2023-12-29T14:13:53.581Z,99412.77
2023-12-29T14:16:25.624Z,99408.27
2023-12-29T14:19:00.617Z,99407.39
2023-12-29T14:21:33.984Z,99405.73
2023-12-29T14:24:13.829Z,99401.46
2023-12-29T14:26:57.515Z,99400.65
2023-12-29T14:29:29.741Z,99399.95
2023-12-29T14:32:01.774Z,99402.29
2023-12-29T14:34:34.160Z,99405.39
2023-12-29T14:37:06.541Z,99402.14
2023-12-29T14:39:38.729Z,99399.96
2023-12-29T14:42:10.789Z,99397.26
2023-12-29T14:44:42.719Z,99398.63
2023-12-29T14:47:14.931Z,99397.43
2023-12-29T14:49:47.866Z,99395.30
2023-12-29T14:52:21.218Z,99395.50
2023-12-29T14:54:53.936Z,99398.10
2023-12-29T14:57:25.985Z,99408.38
2023-12-29T14:59:57.882Z,99419.84
2023-12-29T15:02:29.916Z,99423.80
2023-12-29T15:05:01.974Z,99421.41
2023-12-29T15:07:34.105Z,99422.50
2023-12-29T15:10:07.109Z,99419.98
2023-12-29T15:12:40.095Z,99421.89
2023-12-29T15:15:12.880Z,99423.63
2023-12-29T15:17:44.994Z,99421.02
2023-12-29T15:20:17.233Z,99416.92
2023-12-29T15:22:49.806Z,99417.11
2023-12-29T15:25:24.161Z,99414.73
2023-12-29T15:27:56.262Z,99410.48
2023-12-29T15:30:28.374Z,99410.86
2023-12-29T15:33:00.589Z,99406.44
2023-12-29T15:35:32.896Z,99403.77
2023-12-29T15:38:04.947Z,99400.55
2023-12-29T15:40:37.057Z,99400.09
2023-12-29T15:43:10.144Z,99401.72
2023-12-29T15:45:42.347Z,99399.95
2023-12-29T15:48:14.430Z,99404.19
2023-12-29T15:50:46.404Z,99406.80
2023-12-29T15:53:18.494Z,99406.33
2023-12-29T15:55:50.485Z,99395.79
2023-12-29T15:58:22.480Z,99389.83
2023-12-29T16:00:54.644Z,99384.31
2023-12-29T16:03:26.812Z,99382.89
2023-12-29T16:06:02.342Z,99373.85
2023-12-29T16:08:34.901Z,99368.23
2023-12-29T16:11:07.114Z,99371.66
2023-12-29T16:13:39.037Z,99377.00
2023-12-29T16:16:11.418Z,99374.88
2023-12-29T16:18:43.504Z,99376.29
2023-12-29T16:21:15.934Z,99375.26
2023-12-29T16:23:47.984Z,99385.18
2023-12-29T16:26:27.908Z,99386.55
2023-12-29T16:29:07.854Z,99391.68
2023-12-29T16:31:39.937Z,99389.01
2023-12-29T16:34:12.194Z,99382.65
2023-12-29T16:36:57.450Z,99378.96
2023-12-29T16:39:29.593Z,99375.05
2023-12-29T16:42:03.534Z,99376.54
2023-12-29T16:44:35.498Z,99372.89
2023-12-29T16:47:08.047Z,99371.02
2023-12-29T16:49:40.052Z,99370.62
2023-12-29T16:52:12.147Z,99369.95
2023-12-29T16:54:44.426Z,99369.73
2023-12-29T16:57:16.382Z,99376.02
2023-12-29T16:59:48.352Z,99372.71
2023-12-29T17:02:20.308Z,99378.50
2023-12-29T17:04:52.244Z,99379.64
2023-12-29T17:07:24.410Z,99383.59
2023-12-29T17:09:56.619Z,99391.81
2023-12-29T17:12:28.575Z,99389.77
2023-12-29T17:15:01.632Z,99387.89
2023-12-29T17:17:33.645Z,99385.11
2023-12-29T17:20:06.106Z,99385.41
2023-12-29T17:22:38.252Z,99384.18
2023-12-29T17:25:11.828Z,99383.83
2023-12-29T17:27:44.374Z,99387.23
2023-12-29T17:30:17.941Z,99386.65
2023-12-29T17:32:49.974Z,99387.80
2023-12-29T17:35:24.847Z,99384.35
2023-12-29T17:37:56.898Z,99380.49
2023-12-29T17:40:28.896Z,99382.44
2023-12-29T17:43:04.212Z,99383.52
2023-12-29T17:45:36.432Z,99384.55
2023-12-29T17:48:10.049Z,99384.95
2023-12-29T17:50:42.542Z,99392.00
2023-12-29T17:53:16.085Z,99394.05
2023-12-29T17:55:49.365Z,99395.27
2023-12-29T17:58:21.419Z,99393.58
2023-12-29T18:00:53.657Z,99393.05
2023-12-29T18:03:25.809Z,99394.66
2023-12-29T18:05:58.291Z,99388.13
2023-12-29T18:08:30.388Z,99394.77
2023-12-29T18:11:07.057Z,99391.13
2023-12-29T18:13:39.578Z,99398.05
2023-12-29T18:16:15.053Z,99398.32
2023-12-29T18:18:47.930Z,99400.65
2023-12-29T18:21:22.583Z,99403.09
2023-12-29T18:23:54.585Z,99402.68
2023-12-29T18:26:26.541Z,99402.98
2023-12-29T18:28:58.584Z,99404.34
2023-12-29T18:31:30.681Z,99406.05
2023-12-29T18:34:03.918Z,99407.10
2023-12-29T18:36:36.071Z,99412.26
2023-12-29T18:39:09.761Z,99417.09
2023-12-29T18:41:41.780Z,99416.77
2023-12-29T18:44:13.818Z,99416.52
2023-12-29T18:46:45.817Z,99415.19
2023-12-29T18:49:18.347Z,99411.82
2023-12-29T18:51:55.215Z,99408.86
2023-12-29T18:54:29.736Z,99405.56
2023-12-29T18:57:02.735Z,99403.84
2023-12-29T18:59:35.029Z,99400.58
2023-12-29T19:02:09.248Z,99400.55
2023-12-29T19:04:41.260Z,99398.66
2023-12-29T19:07:15.334Z,99398.41
2023-12-29T19:09:47.390Z,99402.59
2023-12-29T19:12:20.061Z,99399.10
2023-12-29T19:14:54.443Z,99389.95
2023-12-29T19:17:27.224Z,99389.85
2023-12-29T19:19:59.221Z,99392.83
2023-12-29T19:22:32.262Z,99389.06
2023-12-29T19:25:05.068Z,99390.80
2023-12-29T19:27:39.067Z,99389.59
2023-12-29T19:30:12.954Z,99391.11
2023-12-29T19:32:45.000Z,99389.24
2023-12-29T19:35:17.223Z,99387.39
2023-12-29T19:37:49.176Z,99384.35
2023-12-29T19:40:21.832Z,99383.83
2023-12-29T19:42:53.834Z,99385.63
2023-12-29T19:45:25.892Z,99386.00
2023-12-29T19:47:58.262Z,99391.15
2023-12-29T19:50:30.323Z,99392.34
2023-12-29T19:53:04.567Z,99396.05
2023-12-29T19:55:36.885Z,99394.16
2023-12-29T19:58:11.520Z,99393.02
2023-12-29T20:00:44.740Z,99390.80
2023-12-29T20:03:17.957Z,99385.34
2023-12-29T20:05:51.429Z,99381.24
2023-12-29T20:08:24.513Z,99377.42
2023-12-29T20:10:58.868Z,99377.38
2023-12-29T20:13:32.821Z,99378.35
2023-12-29T20:16:05.333Z,99373.89
2023-12-29T20:18:37.938Z,99375.05
2023-12-29T20:21:21.868Z,99372.08
2023-12-29T20:23:54.954Z,99371.53
2023-12-29T20:26:29.192Z,99376.29
2023-12-29T20:29:02.989Z,99377.33
2023-12-29T20:31:39.747Z,99376.08
2023-12-29T20:34:13.250Z,99373.78
2023-12-29T20:36:49.179Z,99378.67
2023-12-29T20:39:23.183Z,99373.83
2023-12-29T20:41:59.131Z,99375.34
2023-12-29T20:44:31.618Z,99376.84
2023-12-29T20:47:06.212Z,99373.73
2023-12-29T20:49:38.702Z,99373.57
2023-12-29T20:52:11.109Z,99377.88
2023-12-29T20:54:43.317Z,99380.62
2023-12-29T20:57:15.839Z,99384.21
2023-12-29T20:59:47.895Z,99385.00
2023-12-29T21:02:20.044Z,99383.16
2023-12-29T21:04:52.040Z,99383.85
2023-12-29T21:07:24.093Z,99379.89
2023-12-29T21:09:56.563Z,99375.73
2023-12-29T21:12:29.348Z,99381.66
2023-12-29T21:15:01.513Z,99380.70
2023-12-29T21:17:35.530Z,99375.30
2023-12-29T21:20:12.246Z,99375.92
2023-12-29T21:22:47.769Z,99372.98
2023-12-29T21:25:20.784Z,99366.45
2023-12-29T21:27:52.968Z,99367.59
2023-12-29T21:30:25.152Z,99366.98
2023-12-29T21:32:57.382Z,99364.50
2023-12-29T21:35:29.928Z,99362.38
2023-12-29T21:38:01.893Z,99363.62
2023-12-29T21:40:33.930Z,99359.25
2023-12-29T21:43:08.911Z,99353.75
2023-12-29T21:45:43.635Z,99351.14
2023-12-29T21:48:19.816Z,99346.77
2023-12-29T21:50:51.906Z,99345.55
2023-12-29T21:53:24.317Z,99338.28
2023-12-29T21:55:58.021Z,99337.13
2023-12-29T21:58:30.528Z,99331.64
2023-12-29T22:01:35.496Z,99330.75
2023-12-29T22:04:10.383Z,99331.06
2023-12-29T22:06:43.247Z,99331.95
2023-12-29T22:09:17.384Z,99335.77
2023-12-29T22:11:50.163Z,99334.13
2023-12-29T22:14:24.414Z,99331.36
2023-12-29T22:16:56.360Z,99341.27
2023-12-29T22:19:30.130Z,99339.48
2023-12-29T22:22:03.082Z,99342.84
2023-12-29T22:24:35.225Z,99335.93
2023-12-29T22:27:07.674Z,99335.59
2023-12-29T22:29:39.759Z,99333.02
2023-12-29T22:32:11.726Z,99330.11
2023-12-29T22:34:46.085Z,99322.73
2023-12-29T22:37:18.345Z,99321.85
2023-12-29T22:39:50.417Z,99322.58
2023-12-29T22:42:22.455Z,99317.95
2023-12-29T22:44:54.410Z,99318.13
2023-12-29T22:47:26.463Z,99317.27
2023-12-29T22:49:58.497Z,99310.12
2023-12-29T22:52:30.503Z,99317.02
2023-12-29T22:55:02.644Z,99316.17
2023-12-29T22:57:34.632Z,99310.11
2023-12-29T23:00:10.822Z,99307.69
2023-12-29T23:02:42.907Z,99303.52
2023-12-29T23:05:15.039Z,99302.80
2023-12-29T23:07:47.085Z,99299.34
2023-12-29T23:10:19.359Z,99296.40
2023-12-29T23:12:51.625Z,99293.95
2023-12-29T23:15:23.801Z,99288.65
2023-12-29T23:17:55.851Z,99284.71
2023-12-29T23:20:28.198Z,99280.05
2023-12-29T23:23:00.541Z,99276.05
2023-12-29T23:25:32.864Z,99276.36
2023-12-29T23:28:05.198Z,99274.61
2023-12-29T23:30:37.340Z,99271.48
2023-12-29T23:33:09.452Z,99271.88
2023-12-29T23:35:41.602Z,99267.40
2023-12-29T23:38:17.332Z,99268.13
2023-12-29T23:40:49.266Z,99263.67
2023-12-29T23:43:21.268Z,99270.75
2023-12-29T23:45:53.576Z,99267.52
2023-12-29T23:48:25.598Z,99268.82
2023-12-29T23:50:57.598Z,99266.85
2023-12-29T23:53:29.552Z,99268.55
2023-12-29T23:56:01.552Z,99265.52
2023-12-29T23:58:33.695Z,99262.65
